Grand Canyon Caverns, Arizona
Current Conditions -  °F | °C
As of 11:51 PM on Thursday 27 Nov 2014 (Local Time) from KIGM Reporting Station
Clear Clear  
Wind Chill: 40°   Ceiling: Unl
Heat Index: 40°   Visibility: NA
Dew Point: 14°   Wind: 3mph
Humidity: 35%   Direction: 150°SSE
Pressure: 30.18"   Gusts: NA
Location:  35.5603°N, 113.544°W
Report Text: KIGM 280651Z AUTO 15003KT CLR 04/M10 A3018 RMK AO2 SLP179 T00441100 402500011 $
Loading
Personal Weather Stations






























Interactive Weather Map New forecast layout! Learn more

10-Day Weather Forecast

Advertisements
Track Severe Weather on mobile